createdAt,value
2018-07-26T00:00:43.867Z,98465.29
2018-07-26T00:03:13.000Z,98462.66
2018-07-26T00:05:42.189Z,98454.61
2018-07-26T00:08:11.392Z,98454.02
2018-07-26T00:10:40.540Z,98450.55
2018-07-26T00:13:10.175Z,98448.54
2018-07-26T00:15:39.361Z,98447.80
2018-07-26T00:18:08.558Z,98449.81
2018-07-26T00:20:37.742Z,98446.59
2018-07-26T00:23:07.185Z,98443.41
2018-07-26T00:25:36.328Z,98449.44
2018-07-26T00:28:05.697Z,98452.55
2018-07-26T00:30:34.940Z,98459.13
2018-07-26T00:33:04.180Z,98456.30
2018-07-26T00:35:33.376Z,98464.02
2018-07-26T00:38:02.557Z,98459.83
2018-07-26T00:40:32.238Z,98456.13
2018-07-26T00:43:01.462Z,98453.56
2018-07-26T00:45:30.667Z,98458.48
2018-07-26T00:47:59.808Z,98459.03
2018-07-26T00:50:29.007Z,98456.88
2018-07-26T00:52:58.153Z,98452.82
2018-07-26T00:55:27.309Z,98448.83
2018-07-26T00:57:56.666Z,98447.80
2018-07-26T01:00:25.818Z,98453.02
2018-07-26T01:02:54.997Z,98446.61
2018-07-26T01:05:24.179Z,98452.95
2018-07-26T01:07:53.329Z,98446.00
2018-07-26T01:10:22.493Z,98447.68
2018-07-26T01:12:51.726Z,98447.74
2018-07-26T01:15:20.882Z,98449.70
2018-07-26T01:17:50.955Z,98452.95
2018-07-26T01:20:20.297Z,98450.61
2018-07-26T01:22:49.467Z,98456.82
2018-07-26T01:25:18.616Z,98457.14
2018-07-26T01:27:47.923Z,98455.02
2018-07-26T01:30:17.112Z,98455.63
2018-07-26T01:32:46.286Z,98460.03
2018-07-26T01:35:15.532Z,98455.27
2018-07-26T01:37:44.700Z,98464.73
2018-07-26T01:40:13.886Z,98463.31
2018-07-26T01:42:54.040Z,98469.87
2018-07-26T01:45:23.208Z,98470.97
2018-07-26T01:47:52.379Z,98462.37
2018-07-26T01:50:21.585Z,98463.24
2018-07-26T01:52:50.721Z,98459.80
2018-07-26T01:55:19.891Z,98460.89
2018-07-26T01:57:49.089Z,98459.30
2018-07-26T02:00:18.261Z,98459.34
2018-07-26T02:02:47.409Z,98459.39
2018-07-26T02:05:16.723Z,98451.67
2018-07-26T02:07:45.933Z,98446.00
2018-07-26T02:10:15.097Z,98442.50
2018-07-26T02:12:44.266Z,98443.91
2018-07-26T02:15:13.422Z,98447.73
2018-07-26T02:17:42.623Z,98453.42
2018-07-26T02:20:11.837Z,98447.22
2018-07-26T02:22:41.077Z,98441.03
2018-07-26T02:25:11.363Z,98448.56
2018-07-26T02:27:40.554Z,98443.97
2018-07-26T02:30:09.817Z,98445.64
2018-07-26T02:32:39.009Z,98449.43
2018-07-26T02:35:08.397Z,98453.05
2018-07-26T02:37:37.686Z,98449.61
2018-07-26T02:40:07.024Z,98442.70
2018-07-26T02:42:36.708Z,98438.77
2018-07-26T02:45:06.116Z,98442.02
2018-07-26T02:47:35.326Z,98445.81
2018-07-26T02:50:04.567Z,98450.72
2018-07-26T02:52:33.804Z,98453.74
2018-07-26T02:55:03.023Z,98463.97
2018-07-26T02:57:32.529Z,98466.45
2018-07-26T03:00:01.665Z,98464.29
2018-07-26T03:02:30.813Z,98461.27
2018-07-26T03:04:59.996Z,98454.78
2018-07-26T03:07:29.172Z,98464.49
2018-07-26T03:09:58.356Z,98461.53
2018-07-26T03:12:27.769Z,98461.53
2018-07-26T03:14:56.951Z,98464.23
2018-07-26T03:17:26.130Z,98471.25
2018-07-26T03:19:55.322Z,98459.38
2018-07-26T03:22:24.513Z,98463.91
2018-07-26T03:24:53.735Z,98466.94
2018-07-26T03:27:22.953Z,98469.37
2018-07-26T03:29:52.120Z,98471.05
2018-07-26T03:32:21.230Z,98465.09
2018-07-26T03:34:50.504Z,98469.69
2018-07-26T03:37:19.652Z,98478.34
2018-07-26T03:39:48.875Z,98476.98
2018-07-26T03:42:18.129Z,98476.98
2018-07-26T03:44:47.317Z,98480.98
2018-07-26T03:47:16.491Z,98487.45
2018-07-26T03:49:45.665Z,98489.03
2018-07-26T03:52:15.353Z,98482.28
2018-07-26T03:54:44.521Z,98481.48
2018-07-26T03:57:13.747Z,98484.38
2018-07-26T03:59:42.906Z,98487.08
2018-07-26T04:02:12.166Z,98484.98
2018-07-26T04:04:41.332Z,98489.03
2018-07-26T04:07:11.489Z,98493.34
2018-07-26T04:09:40.665Z,98496.05
2018-07-26T04:12:09.888Z,98493.78
2018-07-26T04:14:39.038Z,98496.75
2018-07-26T04:17:08.399Z,98491.03
2018-07-26T04:19:37.567Z,98495.59
2018-07-26T04:22:06.956Z,98487.17
2018-07-26T04:24:36.151Z,98500.89
2018-07-26T04:27:05.389Z,98480.33
2018-07-26T04:29:34.534Z,98503.83
2018-07-26T04:32:03.775Z,98509.23
2018-07-26T04:34:32.938Z,98514.61
2018-07-26T04:37:02.114Z,98510.18
2018-07-26T04:39:31.238Z,98513.34
2018-07-26T04:42:00.436Z,98520.82
2018-07-26T04:44:29.593Z,98522.31
2018-07-26T04:46:58.767Z,98524.08
2018-07-26T04:49:27.972Z,98521.73
2018-07-26T04:51:57.159Z,98519.44
2018-07-26T04:54:26.320Z,98525.23
2018-07-26T04:56:55.513Z,98523.53
2018-07-26T04:59:24.655Z,98525.63
2018-07-26T05:01:53.821Z,98529.56
2018-07-26T05:04:23.017Z,98529.92
2018-07-26T05:06:52.259Z,98529.94
2018-07-26T05:09:21.423Z,98528.77
2018-07-26T05:11:50.612Z,98527.83
2018-07-26T05:14:20.212Z,98530.09
2018-07-26T05:16:49.385Z,98526.78
2018-07-26T05:19:18.579Z,98527.78
2018-07-26T05:21:47.762Z,98521.16
2018-07-26T05:24:16.928Z,98517.38
2018-07-26T05:26:46.150Z,98521.63
2018-07-26T05:29:15.364Z,98524.28
2018-07-26T05:31:45.869Z,98527.27
2018-07-26T05:34:15.065Z,98533.34
2018-07-26T05:36:44.310Z,98534.80
2018-07-26T05:39:13.487Z,98541.55
2018-07-26T05:41:42.721Z,98542.11
2018-07-26T05:44:12.012Z,98536.91
2018-07-26T05:46:41.194Z,98538.53
2018-07-26T05:49:10.407Z,98546.89
2018-07-26T05:51:39.624Z,98543.97
2018-07-26T05:54:08.840Z,98545.24
2018-07-26T05:56:37.974Z,98552.83
2018-07-26T05:59:07.168Z,98555.93
2018-07-26T06:01:36.394Z,98552.16
2018-07-26T06:04:05.669Z,98559.45
2018-07-26T06:06:34.871Z,98560.22
2018-07-26T06:09:06.717Z,98561.37
2018-07-26T06:11:35.907Z,98557.30
2018-07-26T06:14:05.484Z,98561.92
2018-07-26T06:16:34.641Z,98557.14
2018-07-26T06:19:03.869Z,98560.87
2018-07-26T06:21:33.075Z,98569.17
2018-07-26T06:24:02.704Z,98558.86
2018-07-26T06:26:31.910Z,98564.62
2018-07-26T06:29:01.056Z,98560.00
2018-07-26T06:31:37.708Z,98563.74
2018-07-26T06:34:07.517Z,98563.38
2018-07-26T06:36:36.671Z,98567.73
2018-07-26T06:39:09.386Z,98570.05
2018-07-26T06:41:38.606Z,98575.59
2018-07-26T06:44:07.819Z,98576.02
2018-07-26T06:46:37.175Z,98572.55
2018-07-26T06:49:07.270Z,98570.70
2018-07-26T06:51:37.038Z,98568.34
2018-07-26T06:54:06.242Z,98569.38
2018-07-26T06:56:37.037Z,98573.52
2018-07-26T06:59:06.493Z,98575.22
2018-07-26T07:01:35.734Z,98580.97
2018-07-26T07:04:04.912Z,98583.47
2018-07-26T07:06:34.136Z,98582.47
2018-07-26T07:09:03.564Z,98582.58
2018-07-26T07:11:32.789Z,98570.19
2018-07-26T07:14:01.946Z,98570.66
2018-07-26T07:16:31.298Z,98575.75
2018-07-26T07:19:02.029Z,98579.22
2018-07-26T07:21:31.294Z,98575.98
2018-07-26T07:24:00.413Z,98577.67
2018-07-26T07:26:29.548Z,98572.72
2018-07-26T07:28:58.687Z,98576.84
2018-07-26T07:31:27.948Z,98574.27
2018-07-26T07:33:57.217Z,98568.42
2018-07-26T07:36:26.389Z,98569.25
2018-07-26T07:38:55.590Z,98561.56
2018-07-26T07:41:24.738Z,98561.56
2018-07-26T07:43:53.914Z,98566.23
2018-07-26T07:46:23.117Z,98562.47
2018-07-26T07:48:52.265Z,98564.98
2018-07-26T07:51:21.414Z,98557.86
2018-07-26T07:53:50.603Z,98543.55
2018-07-26T07:56:19.727Z,98559.31
2018-07-26T07:58:48.864Z,98560.69
2018-07-26T08:01:18.120Z,98564.55
2018-07-26T08:03:47.295Z,98552.29
2018-07-26T08:06:16.471Z,98556.42
2018-07-26T08:08:45.638Z,98562.45
2018-07-26T08:11:14.823Z,98560.28
2018-07-26T08:13:43.921Z,98556.42
2018-07-26T08:16:13.073Z,98557.67
2018-07-26T08:18:42.229Z,98565.27
2018-07-26T08:21:11.682Z,98537.73
2018-07-26T08:23:40.856Z,98563.72
2018-07-26T08:26:10.031Z,98561.66
2018-07-26T08:28:39.157Z,98563.06
2018-07-26T08:31:08.433Z,98560.94
2018-07-26T08:33:37.612Z,98567.22
2018-07-26T08:36:06.847Z,98571.56
2018-07-26T08:38:36.029Z,98572.20
2018-07-26T08:41:05.254Z,98566.78
2018-07-26T08:43:34.501Z,98570.87
2018-07-26T08:46:03.669Z,98570.48
2018-07-26T08:48:32.830Z,98567.05
2018-07-26T08:51:01.981Z,98575.27
2018-07-26T08:53:31.182Z,98561.37
2018-07-26T08:56:00.369Z,98566.53
2018-07-26T08:58:29.959Z,98558.45
2018-07-26T09:00:59.155Z,98562.41
2018-07-26T09:03:28.378Z,98559.05
2018-07-26T09:05:58.437Z,98561.27
2018-07-26T09:08:27.615Z,98566.43
2018-07-26T09:10:56.906Z,98557.92
2018-07-26T09:13:26.163Z,98559.67
2018-07-26T09:15:55.284Z,98559.05
2018-07-26T09:18:24.445Z,98555.75
2018-07-26T09:20:53.648Z,98556.12
2018-07-26T09:23:22.827Z,98554.61
2018-07-26T09:25:51.982Z,98551.44
2018-07-26T09:28:21.152Z,98556.09
2018-07-26T09:30:50.369Z,98549.75
2018-07-26T09:33:19.629Z,98555.67
2018-07-26T09:35:49.426Z,98546.00
2018-07-26T09:38:19.506Z,98551.56
2018-07-26T09:40:48.671Z,98547.67
2018-07-26T09:43:17.829Z,98540.98
2018-07-26T09:45:47.045Z,98543.29
2018-07-26T09:48:16.209Z,98541.91
2018-07-26T09:50:45.342Z,98539.89
2018-07-26T09:53:14.504Z,98526.94
2018-07-26T09:55:43.661Z,98525.31
2018-07-26T09:58:12.902Z,98520.66
2018-07-26T10:00:47.345Z,98521.84
2018-07-26T10:03:16.490Z,98527.23
2018-07-26T10:05:45.626Z,98521.79
2018-07-26T10:08:14.820Z,98526.64
2018-07-26T10:10:43.943Z,98527.48
2018-07-26T10:13:13.089Z,98525.34
2018-07-26T10:15:42.245Z,98517.53
2018-07-26T10:18:11.420Z,98527.16
2018-07-26T10:20:40.575Z,98528.76
2018-07-26T10:23:10.237Z,98522.63
2018-07-26T10:25:39.382Z,98518.77
2018-07-26T10:28:08.593Z,98510.05
2018-07-26T10:30:37.845Z,98511.80
2018-07-26T10:33:07.269Z,98513.95
2018-07-26T10:35:36.496Z,98513.65
2018-07-26T10:38:05.669Z,98513.29
2018-07-26T10:40:34.820Z,98510.19
2018-07-26T10:43:04.003Z,98507.45
2018-07-26T10:45:33.262Z,98514.22
2018-07-26T10:48:02.401Z,98509.15
2018-07-26T10:50:31.544Z,98507.23
2018-07-26T10:53:00.678Z,98500.25
2018-07-26T10:55:29.845Z,98500.59
2018-07-26T10:57:59.018Z,98500.91
2018-07-26T11:00:28.315Z,98504.23
2018-07-26T11:02:57.496Z,98503.71
2018-07-26T11:05:26.711Z,98499.48
2018-07-26T11:07:55.881Z,98500.89
2018-07-26T11:10:25.085Z,98496.05
2018-07-26T11:12:54.628Z,98500.60
2018-07-26T11:15:28.737Z,98493.27
2018-07-26T11:17:58.093Z,98490.14
2018-07-26T11:20:27.241Z,98486.09
2018-07-26T11:22:56.674Z,98481.89
2018-07-26T11:25:25.876Z,98478.27
2018-07-26T11:27:55.626Z,98476.02
2018-07-26T11:30:25.113Z,98475.02
2018-07-26T11:32:54.366Z,98469.20
2018-07-26T11:35:23.482Z,98462.37
2018-07-26T11:37:52.779Z,98461.30
2018-07-26T11:40:21.894Z,98459.48
2018-07-26T11:42:51.129Z,98463.66
2018-07-26T11:45:20.370Z,98457.60
2018-07-26T11:47:49.536Z,98448.02
2018-07-26T11:50:18.764Z,98446.53
2018-07-26T11:52:47.988Z,98448.92
2018-07-26T11:55:17.169Z,98458.11
2018-07-26T11:57:46.433Z,98457.86
2018-07-26T12:00:15.636Z,98450.15
2018-07-26T12:02:44.786Z,98455.22
2018-07-26T12:05:13.980Z,98439.05
2018-07-26T12:07:43.249Z,98445.32
2018-07-26T12:10:12.441Z,98448.87
2018-07-26T12:12:41.661Z,98445.25
2018-07-26T12:15:11.413Z,98447.73
2018-07-26T12:17:40.636Z,98441.43
2018-07-26T12:20:09.814Z,98436.11
2018-07-26T12:22:38.979Z,98439.42
2018-07-26T12:25:08.441Z,98431.80
2018-07-26T12:27:37.576Z,98434.41
2018-07-26T12:30:07.337Z,98432.30
2018-07-26T12:32:36.813Z,98432.07
2018-07-26T12:35:05.970Z,98428.52
2018-07-26T12:37:35.205Z,98422.39
2018-07-26T12:40:04.873Z,98418.55
2018-07-26T12:42:34.051Z,98414.88
2018-07-26T12:45:03.233Z,98416.03
2018-07-26T12:47:32.489Z,98413.25
2018-07-26T12:50:01.614Z,98416.98
2018-07-26T12:52:30.769Z,98406.95
2018-07-26T12:54:59.943Z,98402.85
2018-07-26T12:57:29.074Z,98401.00
2018-07-26T12:59:58.237Z,98394.45
2018-07-26T13:02:27.489Z,98395.41
2018-07-26T13:04:56.637Z,98390.47
2018-07-26T13:07:25.820Z,98386.11
2018-07-26T13:09:55.006Z,98387.22
2018-07-26T13:12:24.295Z,98392.72
2018-07-26T13:14:53.501Z,98397.55
2018-07-26T13:17:22.588Z,98393.63
2018-07-26T13:19:52.196Z,98398.59
2018-07-26T13:22:21.378Z,98406.45
2018-07-26T13:24:50.985Z,98404.26
2018-07-26T13:27:20.192Z,98401.91
2018-07-26T13:29:49.370Z,98397.85
2018-07-26T13:32:18.557Z,98416.45
2018-07-26T13:34:47.780Z,98440.16
2018-07-26T13:37:16.982Z,98431.19
2018-07-26T13:39:46.963Z,98455.88
2018-07-26T13:42:16.193Z,98451.13
2018-07-26T13:44:45.446Z,98451.67
2018-07-26T13:47:14.624Z,98430.25
2018-07-26T13:49:43.863Z,98432.89
2018-07-26T13:52:13.046Z,98434.87
2018-07-26T13:54:42.289Z,98435.30
2018-07-26T13:57:11.818Z,98309.30
2018-07-26T13:59:41.116Z,98419.34
2018-07-26T14:02:10.309Z,98417.03
2018-07-26T14:04:39.429Z,98416.97
2018-07-26T14:07:08.875Z,98411.00
2018-07-26T14:09:38.096Z,98420.91
2018-07-26T14:12:07.345Z,98443.94
2018-07-26T14:14:36.535Z,98460.27
2018-07-26T14:17:05.907Z,98456.25
2018-07-26T14:19:35.028Z,98458.33
2018-07-26T14:22:04.376Z,98456.97
2018-07-26T14:24:33.588Z,98466.22
2018-07-26T14:27:02.735Z,98469.13
2018-07-26T14:29:31.971Z,98472.41
2018-07-26T14:32:01.076Z,98472.41
2018-07-26T14:34:30.218Z,98465.12
2018-07-26T14:36:59.400Z,98469.78
2018-07-26T14:39:28.533Z,98465.44
2018-07-26T14:41:57.721Z,98473.17
2018-07-26T14:44:26.875Z,98475.73
2018-07-26T14:46:56.158Z,98469.19
2018-07-26T14:49:25.299Z,98462.77
2018-07-26T14:51:54.518Z,98464.17
2018-07-26T14:54:23.579Z,98446.67
2018-07-26T14:56:52.734Z,98443.66
2018-07-26T14:59:21.904Z,98439.89
2018-07-26T15:01:51.044Z,98442.06
2018-07-26T15:04:20.358Z,98442.41
2018-07-26T15:06:49.537Z,98446.70
2018-07-26T15:09:18.659Z,98447.30
2018-07-26T15:11:47.991Z,98451.16
2018-07-26T15:14:17.593Z,98446.64
2018-07-26T15:16:47.096Z,98450.10
2018-07-26T15:19:16.225Z,98449.10
2018-07-26T15:21:45.433Z,98446.21
2018-07-26T15:24:14.617Z,98438.20
2018-07-26T15:26:43.806Z,98441.66
2018-07-26T15:29:12.969Z,98438.73
2018-07-26T15:31:42.101Z,98430.82
2018-07-26T15:34:11.257Z,98434.83
2018-07-26T15:36:40.399Z,98426.07
2018-07-26T15:39:10.494Z,98424.50
2018-07-26T15:41:45.525Z,98409.64
2018-07-26T15:44:15.945Z,98403.71
2018-07-26T15:46:45.108Z,98399.31
2018-07-26T15:49:14.287Z,98402.03
2018-07-26T15:51:43.434Z,98377.94
2018-07-26T15:54:12.588Z,98402.03
2018-07-26T15:56:41.811Z,98407.23
2018-07-26T15:59:10.956Z,98411.28
2018-07-26T16:01:40.133Z,98412.16
2018-07-26T16:04:09.373Z,98414.66
2018-07-26T16:06:38.521Z,98420.66
2018-07-26T16:09:09.850Z,98424.64
2018-07-26T16:11:39.286Z,98423.98
2018-07-26T16:14:09.169Z,98423.42
2018-07-26T16:16:38.373Z,98423.70
2018-07-26T16:19:07.703Z,98423.94
2018-07-26T16:21:36.852Z,98422.05
2018-07-26T16:24:06.069Z,98428.46
2018-07-26T16:26:35.246Z,98420.45
2018-07-26T16:29:04.537Z,98417.41
2018-07-26T16:31:33.752Z,98414.34
2018-07-26T16:34:02.974Z,98413.47
2018-07-26T16:36:32.123Z,98406.87
2018-07-26T16:39:01.261Z,98402.00
2018-07-26T16:41:30.455Z,98393.28
2018-07-26T16:43:59.624Z,98392.61
2018-07-26T16:46:28.782Z,98397.59
2018-07-26T16:48:57.954Z,98394.08
2018-07-26T16:51:28.065Z,98403.85
2018-07-26T16:53:57.305Z,98417.03
2018-07-26T16:56:26.524Z,98422.46
2018-07-26T16:58:55.763Z,98423.02
2018-07-26T17:01:24.828Z,98425.42
2018-07-26T17:03:54.009Z,98418.82
2018-07-26T17:06:23.179Z,98422.80
2018-07-26T17:08:52.325Z,98419.62
2018-07-26T17:11:21.508Z,98428.59
2018-07-26T17:13:50.707Z,98439.37
2018-07-26T17:16:19.940Z,98446.05
2018-07-26T17:18:49.188Z,98446.73
2018-07-26T17:21:18.340Z,98446.95
2018-07-26T17:23:47.494Z,98447.14
2018-07-26T17:26:16.653Z,98440.90
2018-07-26T17:28:45.836Z,98447.55
2018-07-26T17:31:14.964Z,98448.98
2018-07-26T17:33:44.161Z,98450.77
2018-07-26T17:36:13.396Z,98453.70
2018-07-26T17:38:42.564Z,98454.69
2018-07-26T17:41:11.867Z,98451.05
2018-07-26T17:43:41.012Z,98446.94
2018-07-26T17:46:10.149Z,98455.02
2018-07-26T17:48:39.303Z,98461.78
2018-07-26T17:51:08.649Z,98466.31
2018-07-26T17:53:37.744Z,98472.66
2018-07-26T17:56:06.960Z,98477.84
2018-07-26T17:58:36.161Z,98477.29
2018-07-26T18:01:05.397Z,98476.73
2018-07-26T18:03:34.566Z,98482.39
2018-07-26T18:06:03.793Z,98486.92
2018-07-26T18:08:32.924Z,98485.35
2018-07-26T18:11:02.101Z,98483.75
2018-07-26T18:13:31.593Z,98489.19
2018-07-26T18:16:00.735Z,98482.94
2018-07-26T18:18:30.012Z,98474.42
2018-07-26T18:20:59.137Z,98476.64
2018-07-26T18:23:28.280Z,98480.48
2018-07-26T18:25:57.625Z,98470.86
2018-07-26T18:28:26.758Z,98473.02
2018-07-26T18:30:56.012Z,98477.30
2018-07-26T18:33:25.224Z,98484.30
2018-07-26T18:35:54.420Z,98495.92
2018-07-26T18:38:23.626Z,98507.45
2018-07-26T18:40:52.731Z,98522.77
2018-07-26T18:43:22.186Z,98534.70
2018-07-26T18:45:51.290Z,98539.89
2018-07-26T18:48:20.452Z,98530.94
2018-07-26T18:50:51.201Z,98528.16
2018-07-26T18:53:20.398Z,98517.51
2018-07-26T18:55:49.612Z,98516.15
2018-07-26T18:58:18.951Z,98518.31
2018-07-26T19:00:48.072Z,98516.83
2018-07-26T19:03:17.257Z,98526.19
2018-07-26T19:05:46.545Z,98534.43
2018-07-26T19:08:15.746Z,98536.19
2018-07-26T19:10:44.958Z,98537.73
2018-07-26T19:13:14.137Z,98541.52
2018-07-26T19:15:43.257Z,98538.86
2018-07-26T19:18:12.407Z,98536.95
2018-07-26T19:20:41.596Z,98528.24
2018-07-26T19:23:12.208Z,98518.18
2018-07-26T19:25:41.394Z,98522.00
2018-07-26T19:28:10.526Z,98524.50
2018-07-26T19:30:41.246Z,98522.90
2018-07-26T19:33:10.501Z,98528.67
2018-07-26T19:35:40.659Z,98528.08
2018-07-26T19:38:10.359Z,98527.62
2018-07-26T19:40:39.622Z,98533.85
2018-07-26T19:43:09.114Z,98534.66
2018-07-26T19:45:38.236Z,98538.73
2018-07-26T19:48:07.589Z,98540.41
2018-07-26T19:50:36.813Z,98542.27
2018-07-26T19:53:06.036Z,98536.20
2018-07-26T19:55:35.426Z,98535.48
2018-07-26T19:58:04.576Z,98535.88
2018-07-26T20:00:33.877Z,98536.77
2018-07-26T20:03:04.954Z,98543.33
2018-07-26T20:05:34.139Z,98545.80
2018-07-26T20:08:03.330Z,98550.50
2018-07-26T20:10:32.503Z,98550.50
2018-07-26T20:13:01.682Z,98550.33
2018-07-26T20:15:30.910Z,98545.08
2018-07-26T20:18:00.116Z,98545.79
2018-07-26T20:20:29.326Z,98547.78
2018-07-26T20:22:58.550Z,98540.75
2018-07-26T20:25:27.749Z,98540.52
2018-07-26T20:27:57.009Z,98545.95
2018-07-26T20:30:26.197Z,98550.02
2018-07-26T20:32:55.408Z,98557.44
2018-07-26T20:35:24.544Z,98545.86
2018-07-26T20:37:53.760Z,98550.48
2018-07-26T20:40:22.949Z,98549.46
2018-07-26T20:42:52.122Z,98557.34
2018-07-26T20:45:21.293Z,98547.60
2018-07-26T20:47:50.456Z,98551.28
2018-07-26T20:50:19.760Z,98553.52
2018-07-26T20:52:48.932Z,98553.05
2018-07-26T20:55:18.117Z,98557.03
2018-07-26T20:57:47.268Z,98551.36
2018-07-26T21:00:16.962Z,98551.73
2018-07-26T21:02:46.913Z,98550.79
2018-07-26T21:05:16.886Z,98549.73
2018-07-26T21:07:45.993Z,98549.18
2018-07-26T21:10:15.148Z,98538.33
2018-07-26T21:12:44.292Z,98531.80
2018-07-26T21:15:13.482Z,98529.34
2018-07-26T21:17:42.615Z,98529.34
2018-07-26T21:20:11.798Z,98530.19
2018-07-26T21:22:40.971Z,98535.14
2018-07-26T21:25:11.105Z,98532.91
2018-07-26T21:27:40.269Z,98538.66
2018-07-26T21:30:09.797Z,98535.30
2018-07-26T21:32:39.002Z,98526.78
2018-07-26T21:35:08.871Z,98530.78
2018-07-26T21:37:38.022Z,98537.61
2018-07-26T21:40:07.794Z,98534.42
2018-07-26T21:42:37.171Z,98529.63
2018-07-26T21:45:07.059Z,98531.31
2018-07-26T21:47:36.254Z,98524.06
2018-07-26T21:50:05.728Z,98523.88
2018-07-26T21:52:34.897Z,98525.61
2018-07-26T21:55:04.137Z,98523.30
2018-07-26T21:57:33.297Z,98519.06
2018-07-26T22:00:02.445Z,98524.63
2018-07-26T22:02:31.741Z,98523.02
2018-07-26T22:05:00.789Z,98524.70
2018-07-26T22:07:29.944Z,98534.48
2018-07-26T22:09:59.228Z,98524.42
2018-07-26T22:12:28.389Z,98526.39
2018-07-26T22:14:57.554Z,98522.66
2018-07-26T22:17:26.725Z,98529.50
2018-07-26T22:19:56.320Z,98530.67
2018-07-26T22:22:25.648Z,98525.00
2018-07-26T22:24:54.971Z,98533.20
2018-07-26T22:27:24.113Z,98529.76
2018-07-26T22:29:53.282Z,98525.69
2018-07-26T22:32:23.410Z,98523.61
2018-07-26T22:34:52.585Z,98526.64
2018-07-26T22:37:21.752Z,98525.61
2018-07-26T22:39:50.993Z,98528.62
2018-07-26T22:42:20.145Z,98526.52
2018-07-26T22:44:49.311Z,98521.22
2018-07-26T22:47:18.481Z,98519.52
2018-07-26T22:49:48.026Z,98515.63
2018-07-26T22:52:17.185Z,98518.73
2018-07-26T22:54:46.333Z,98504.75
2018-07-26T22:57:15.591Z,98499.41
2018-07-26T22:59:44.728Z,98504.34
2018-07-26T23:02:13.908Z,98493.33
2018-07-26T23:04:43.068Z,98493.65
2018-07-26T23:07:12.244Z,98497.45
2018-07-26T23:09:41.497Z,98501.90
2018-07-26T23:12:10.656Z,98506.87
2018-07-26T23:14:39.795Z,98508.83
2018-07-26T23:17:09.185Z,98503.27
2018-07-26T23:19:38.289Z,98504.36
2018-07-26T23:22:07.585Z,98509.64
2018-07-26T23:24:36.721Z,98510.31
2018-07-26T23:27:05.980Z,98503.33
2018-07-26T23:29:35.178Z,98499.87
2018-07-26T23:32:04.362Z,98504.03
2018-07-26T23:34:33.661Z,98498.95
2018-07-26T23:37:02.814Z,98503.55
2018-07-26T23:39:32.031Z,98495.44
2018-07-26T23:42:01.186Z,98486.52
2018-07-26T23:44:30.372Z,98493.28
2018-07-26T23:46:59.601Z,98487.93
2018-07-26T23:49:28.747Z,98490.70
2018-07-26T23:51:58.267Z,98494.27
2018-07-26T23:54:27.458Z,98485.16
2018-07-26T23:56:56.616Z,98485.48
2018-07-26T23:59:25.783Z,98488.47
